sensor_id;sensor_type;location;lat;lon;timestamp;pressure;altitude;pressure_sealevel;temperature;humidity
42385;BME280;28042;43.986;22.860;2023-11-21T00:02:13;100991.63;;;4.80;100.00
42385;BME280;28042;43.986;22.860;2023-11-21T00:04:39;100952.38;;;4.59;100.00
42385;BME280;28042;43.986;22.860;2023-11-21T00:07:04;100965.53;;;4.71;100.00
42385;BME280;28042;43.986;22.860;2023-11-21T00:09:31;100976.84;;;4.75;100.00
42385;BME280;28042;43.986;22.860;2023-11-21T00:11:57;100956.22;;;4.56;100.00
42385;BME280;28042;43.986;22.860;2023-11-21T00:14:24;100975.25;;;4.82;100.00
42385;BME280;28042;43.986;22.860;2023-11-21T00:16:50;100982.03;;;4.86;100.00
42385;BME280;28042;43.986;22.860;2023-11-21T00:19:15;100957.09;;;4.74;100.00
42385;BME280;28042;43.986;22.860;2023-11-21T00:21:42;100980.66;;;4.82;100.00
42385;BME280;28042;43.986;22.860;2023-11-21T00:24:09;100989.00;;;4.89;100.00
42385;BME280;28042;43.986;22.860;2023-11-21T00:26:34;100980.50;;;4.83;100.00
42385;BME280;28042;43.986;22.860;2023-11-21T00:29:02;100969.75;;;4.92;100.00
42385;BME280;28042;43.986;22.860;2023-11-21T00:31:27;100977.56;;;4.95;100.00
42385;BME280;28042;43.986;22.860;2023-11-21T00:33:53;100941.56;;;4.76;100.00
42385;BME280;28042;43.986;22.860;2023-11-21T00:36:19;100941.88;;;4.73;100.00
42385;BME280;28042;43.986;22.860;2023-11-21T00:38:44;100973.03;;;4.95;100.00
42385;BME280;28042;43.986;22.860;2023-11-21T00:41:10;100936.88;;;4.78;100.00
42385;BME280;28042;43.986;22.860;2023-11-21T00:43:35;100966.53;;;5.06;100.00
42385;BME280;28042;43.986;22.860;2023-11-21T00:46:04;100969.31;;;5.14;100.00
42385;BME280;28042;43.986;22.860;2023-11-21T00:48:30;100958.66;;;5.13;100.00
42385;BME280;28042;43.986;22.860;2023-11-21T00:50:55;100935.38;;;5.02;100.00
42385;BME280;28042;43.986;22.860;2023-11-21T00:53:21;100929.13;;;5.01;100.00
42385;BME280;28042;43.986;22.860;2023-11-21T00:55:46;100928.28;;;5.01;100.00
42385;BME280;28042;43.986;22.860;2023-11-21T00:58:12;100966.59;;;5.14;100.00
42385;BME280;28042;43.986;22.860;2023-11-21T01:00:38;100959.16;;;5.16;100.00
42385;BME280;28042;43.986;22.860;2023-11-21T01:03:06;100965.19;;;5.10;100.00
42385;BME280;28042;43.986;22.860;2023-11-21T01:05:33;100953.69;;;5.08;100.00
42385;BME280;28042;43.986;22.860;2023-11-21T01:07:59;100932.06;;;5.08;100.00
42385;BME280;28042;43.986;22.860;2023-11-21T01:10:25;100946.03;;;5.21;100.00
42385;BME280;28042;43.986;22.860;2023-11-21T01:12:50;100956.66;;;5.41;100.00
42385;BME280;28042;43.986;22.860;2023-11-21T01:15:16;100958.97;;;5.35;100.00
42385;BME280;28042;43.986;22.860;2023-11-21T01:17:41;100953.91;;;5.32;100.00
42385;BME280;28042;43.986;22.860;2023-11-21T01:20:08;100953.41;;;5.37;100.00
42385;BME280;28042;43.986;22.860;2023-11-21T01:22:38;100937.97;;;5.29;100.00
42385;BME280;28042;43.986;22.860;2023-11-21T01:25:04;100937.34;;;5.35;100.00
42385;BME280;28042;43.986;22.860;2023-11-21T01:27:32;100928.69;;;5.32;100.00
42385;BME280;28042;43.986;22.860;2023-11-21T01:29:58;100939.41;;;5.42;100.00
42385;BME280;28042;43.986;22.860;2023-11-21T01:32:23;100914.63;;;5.28;100.00
42385;BME280;28042;43.986;22.860;2023-11-21T01:34:50;100929.66;;;5.49;100.00
42385;BME280;28042;43.986;22.860;2023-11-21T01:37:15;100919.63;;;5.41;100.00
42385;BME280;28042;43.986;22.860;2023-11-21T01:39:43;100918.06;;;5.38;100.00
42385;BME280;28042;43.986;22.860;2023-11-21T01:42:09;100936.38;;;5.45;100.00
42385;BME280;28042;43.986;22.860;2023-11-21T01:44:36;100906.84;;;5.25;100.00
42385;BME280;28042;43.986;22.860;2023-11-21T01:47:02;100902.78;;;5.21;100.00
42385;BME280;28042;43.986;22.860;2023-11-21T01:49:31;100931.59;;;5.38;100.00
42385;BME280;28042;43.986;22.860;2023-11-21T01:51:59;100913.88;;;5.18;100.00
42385;BME280;28042;43.986;22.860;2023-11-21T01:54:25;100894.91;;;5.10;100.00
42385;BME280;28042;43.986;22.860;2023-11-21T01:56:50;100902.94;;;5.02;100.00
42385;BME280;28042;43.986;22.860;2023-11-21T01:59:19;100933.59;;;5.10;100.00
42385;BME280;28042;43.986;22.860;2023-11-21T02:01:46;100923.88;;;5.00;100.00
42385;BME280;28042;43.986;22.860;2023-11-21T02:04:12;100918.97;;;4.95;100.00
42385;BME280;28042;43.986;22.860;2023-11-21T02:06:38;100905.44;;;4.77;100.00
42385;BME280;28042;43.986;22.860;2023-11-21T02:09:04;100937.16;;;4.93;100.00
42385;BME280;28042;43.986;22.860;2023-11-21T02:11:30;100907.78;;;4.72;100.00
42385;BME280;28042;43.986;22.860;2023-11-21T02:13:59;100930.75;;;4.76;100.00
42385;BME280;28042;43.986;22.860;2023-11-21T02:16:24;100898.81;;;4.54;100.00
42385;BME280;28042;43.986;22.860;2023-11-21T02:18:51;100923.97;;;4.72;100.00
42385;BME280;28042;43.986;22.860;2023-11-21T02:21:17;100936.81;;;4.70;100.00
42385;BME280;28042;43.986;22.860;2023-11-21T02:23:44;100912.47;;;4.52;100.00
42385;BME280;28042;43.986;22.860;2023-11-21T02:26:12;100913.00;;;4.56;100.00
42385;BME280;28042;43.986;22.860;2023-11-21T02:28:37;100920.44;;;4.54;100.00
42385;BME280;28042;43.986;22.860;2023-11-21T02:31:04;100906.53;;;4.49;100.00
42385;BME280;28042;43.986;22.860;2023-11-21T02:33:30;100891.16;;;4.49;100.00
42385;BME280;28042;43.986;22.860;2023-11-21T02:36:00;100915.78;;;4.64;100.00
42385;BME280;28042;43.986;22.860;2023-11-21T02:38:25;100896.03;;;4.46;100.00
42385;BME280;28042;43.986;22.860;2023-11-21T02:40:51;100930.31;;;4.63;100.00
42385;BME280;28042;43.986;22.860;2023-11-21T02:43:16;100939.44;;;4.62;100.00
42385;BME280;28042;43.986;22.860;2023-11-21T02:45:42;100923.81;;;4.56;100.00
42385;BME280;28042;43.986;22.860;2023-11-21T02:48:07;100933.78;;;4.56;100.00
42385;BME280;28042;43.986;22.860;2023-11-21T02:50:33;100932.53;;;4.50;100.00
42385;BME280;28042;43.986;22.860;2023-11-21T02:53:00;100894.75;;;4.22;100.00
42385;BME280;28042;43.986;22.860;2023-11-21T02:55:26;100899.38;;;4.12;100.00
42385;BME280;28042;43.986;22.860;2023-11-21T02:57:52;100926.00;;;4.25;100.00
42385;BME280;28042;43.986;22.860;2023-11-21T03:00:18;100928.88;;;4.23;100.00
42385;BME280;28042;43.986;22.860;2023-11-21T03:02:43;100928.88;;;4.23;100.00
42385;BME280;28042;43.986;22.860;2023-11-21T03:05:09;100932.78;;;4.11;100.00
42385;BME280;28042;43.986;22.860;2023-11-21T03:07:36;100907.50;;;3.85;100.00
42385;BME280;28042;43.986;22.860;2023-11-21T03:10:02;100928.44;;;4.01;100.00
42385;BME280;28042;43.986;22.860;2023-11-21T03:12:29;100898.97;;;3.80;100.00
42385;BME280;28042;43.986;22.860;2023-11-21T03:14:55;100904.38;;;3.80;100.00
42385;BME280;28042;43.986;22.860;2023-11-21T03:17:20;100907.69;;;3.74;100.00
42385;BME280;28042;43.986;22.860;2023-11-21T03:19:46;100923.97;;;3.82;100.00
42385;BME280;28042;43.986;22.860;2023-11-21T03:22:11;100930.50;;;3.79;100.00
42385;BME280;28042;43.986;22.860;2023-11-21T03:24:37;100900.28;;;3.76;100.00
42385;BME280;28042;43.986;22.860;2023-11-21T03:27:04;100925.00;;;3.98;100.00
42385;BME280;28042;43.986;22.860;2023-11-21T03:29:29;100929.81;;;4.05;100.00
42385;BME280;28042;43.986;22.860;2023-11-21T03:31:55;100909.13;;;3.95;100.00
42385;BME280;28042;43.986;22.860;2023-11-21T03:34:26;100903.41;;;3.98;100.00
42385;BME280;28042;43.986;22.860;2023-11-21T03:36:52;100923.00;;;4.10;100.00
42385;BME280;28042;43.986;22.860;2023-11-21T03:39:21;100911.53;;;3.98;100.00
42385;BME280;28042;43.986;22.860;2023-11-21T03:41:47;100887.84;;;3.92;100.00
42385;BME280;28042;43.986;22.860;2023-11-21T03:44:14;100916.31;;;4.05;100.00
42385;BME280;28042;43.986;22.860;2023-11-21T03:46:39;100896.50;;;3.96;100.00
42385;BME280;28042;43.986;22.860;2023-11-21T03:49:05;100895.19;;;4.00;100.00
42385;BME280;28042;43.986;22.860;2023-11-21T03:51:30;100902.94;;;4.13;100.00
42385;BME280;28042;43.986;22.860;2023-11-21T03:53:56;100917.78;;;4.27;100.00
42385;BME280;28042;43.986;22.860;2023-11-21T03:56:21;100933.44;;;4.41;100.00
42385;BME280;28042;43.986;22.860;2023-11-21T03:58:48;100936.91;;;4.51;100.00
42385;BME280;28042;43.986;22.860;2023-11-21T04:01:23;100926.44;;;4.48;100.00
42385;BME280;28042;43.986;22.860;2023-11-21T04:03:50;100930.31;;;4.63;100.00
42385;BME280;28042;43.986;22.860;2023-11-21T04:06:16;100941.72;;;4.75;100.00
42385;BME280;28042;43.986;22.860;2023-11-21T04:08:43;100928.06;;;4.76;100.00
42385;BME280;28042;43.986;22.860;2023-11-21T04:11:09;100928.69;;;4.88;100.00
42385;BME280;28042;43.986;22.860;2023-11-21T04:13:37;100918.09;;;4.95;100.00
42385;BME280;28042;43.986;22.860;2023-11-21T04:16:02;100887.22;;;4.79;100.00
42385;BME280;28042;43.986;22.860;2023-11-21T04:18:28;100908.16;;;4.95;100.00
42385;BME280;28042;43.986;22.860;2023-11-21T04:20:53;100902.88;;;4.94;100.00
42385;BME280;28042;43.986;22.860;2023-11-21T04:23:19;100912.63;;;5.04;100.00
42385;BME280;28042;43.986;22.860;2023-11-21T04:25:44;100893.47;;;4.98;100.00
42385;BME280;28042;43.986;22.860;2023-11-21T04:28:10;100907.97;;;5.15;100.00
42385;BME280;28042;43.986;22.860;2023-11-21T04:30:36;100893.53;;;5.06;100.00
42385;BME280;28042;43.986;22.860;2023-11-21T04:33:01;100919.97;;;5.20;100.00
42385;BME280;28042;43.986;22.860;2023-11-21T04:35:28;100920.69;;;5.22;100.00
42385;BME280;28042;43.986;22.860;2023-11-21T04:37:53;100916.22;;;5.13;100.00
42385;BME280;28042;43.986;22.860;2023-11-21T04:40:18;100922.78;;;5.10;100.00
42385;BME280;28042;43.986;22.860;2023-11-21T04:42:46;100927.81;;;5.05;100.00
42385;BME280;28042;43.986;22.860;2023-11-21T04:45:11;100923.88;;;5.00;100.00
42385;BME280;28042;43.986;22.860;2023-11-21T04:47:37;100919.25;;;4.92;100.00
42385;BME280;28042;43.986;22.860;2023-11-21T04:50:04;100931.25;;;4.90;100.00
42385;BME280;28042;43.986;22.860;2023-11-21T04:52:31;100932.41;;;4.87;100.00
42385;BME280;28042;43.986;22.860;2023-11-21T04:54:57;100930.84;;;4.85;100.00
42385;BME280;28042;43.986;22.860;2023-11-21T04:57:24;100907.38;;;4.67;100.00
42385;BME280;28042;43.986;22.860;2023-11-21T04:59:49;100923.97;;;4.72;100.00
42385;BME280;28042;43.986;22.860;2023-11-21T05:02:16;100938.88;;;4.76;100.00
42385;BME280;28042;43.986;22.860;2023-11-21T05:04:41;100937.25;;;4.83;100.00
42385;BME280;28042;43.986;22.860;2023-11-21T05:07:08;100925.06;;;4.79;100.00
42385;BME280;28042;43.986;22.860;2023-11-21T05:09:34;100939.66;;;4.87;100.00
42385;BME280;28042;43.986;22.860;2023-11-21T05:12:01;100930.69;;;4.68;100.00
42385;BME280;28042;43.986;22.860;2023-11-21T05:14:27;100934.38;;;4.67;100.00
42385;BME280;28042;43.986;22.860;2023-11-21T05:16:52;100927.78;;;4.62;100.00
42385;BME280;28042;43.986;22.860;2023-11-21T05:19:18;100936.41;;;4.65;100.00
42385;BME280;28042;43.986;22.860;2023-11-21T05:21:43;100918.41;;;4.56;100.00
42385;BME280;28042;43.986;22.860;2023-11-21T05:24:09;100961.50;;;4.75;100.00
42385;BME280;28042;43.986;22.860;2023-11-21T05:26:34;100922.44;;;4.52;100.00
42385;BME280;28042;43.986;22.860;2023-11-21T05:29:00;100949.81;;;4.57;100.00
42385;BME280;28042;43.986;22.860;2023-11-21T05:31:25;100916.94;;;4.26;100.00
42385;BME280;28042;43.986;22.860;2023-11-21T05:33:52;100946.16;;;4.31;100.00
42385;BME280;28042;43.986;22.860;2023-11-21T05:36:18;100946.75;;;4.24;100.00
42385;BME280;28042;43.986;22.860;2023-11-21T05:38:43;100916.47;;;4.03;100.00
42385;BME280;28042;43.986;22.860;2023-11-21T05:41:09;100944.47;;;4.30;100.00
42385;BME280;28042;43.986;22.860;2023-11-21T05:43:38;100918.06;;;4.23;100.00
42385;BME280;28042;43.986;22.860;2023-11-21T05:46:04;100921.09;;;4.38;100.00
42385;BME280;28042;43.986;22.860;2023-11-21T05:48:29;100943.81;;;4.63;100.00
42385;BME280;28042;43.986;22.860;2023-11-21T05:50:55;100943.91;;;4.71;100.00
42385;BME280;28042;43.986;22.860;2023-11-21T05:53:20;100917.34;;;4.67;100.00
42385;BME280;28042;43.986;22.860;2023-11-21T05:55:47;100952.53;;;4.93;100.00
42385;BME280;28042;43.986;22.860;2023-11-21T05:58:13;100957.34;;;4.99;100.00
42385;BME280;28042;43.986;22.860;2023-11-21T06:00:38;100944.91;;;5.06;100.00
42385;BME280;28042;43.986;22.860;2023-11-21T06:03:04;100941.88;;;5.09;100.00
42385;BME280;28042;43.986;22.860;2023-11-21T06:05:32;100928.75;;;5.14;100.00
42385;BME280;28042;43.986;22.860;2023-11-21T06:07:58;100941.59;;;5.20;100.00
42385;BME280;28042;43.986;22.860;2023-11-21T06:10:25;100933.28;;;5.31;100.00
42385;BME280;28042;43.986;22.860;2023-11-21T06:12:51;100897.38;;;5.21;100.00
42385;BME280;28042;43.986;22.860;2023-11-21T06:15:16;100928.09;;;5.46;100.00
42385;BME280;28042;43.986;22.860;2023-11-21T06:17:44;100932.31;;;5.41;100.00
42385;BME280;28042;43.986;22.860;2023-11-21T06:20:15;100901.09;;;5.28;100.00
42385;BME280;28042;43.986;22.860;2023-11-21T06:22:50;100931.88;;;5.53;100.00
42385;BME280;28042;43.986;22.860;2023-11-21T06:25:16;100908.16;;;5.47;100.00
42385;BME280;28042;43.986;22.860;2023-11-21T06:27:44;100929.28;;;5.70;100.00
42385;BME280;28042;43.986;22.860;2023-11-21T06:30:10;100937.28;;;5.79;100.00
42385;BME280;28042;43.986;22.860;2023-11-21T06:32:38;100944.75;;;5.85;100.00
42385;BME280;28042;43.986;22.860;2023-11-21T06:35:04;100935.03;;;5.92;100.00
42385;BME280;28042;43.986;22.860;2023-11-21T06:37:30;100933.88;;;6.03;100.00
42385;BME280;28042;43.986;22.860;2023-11-21T06:39:56;100947.66;;;6.18;100.00
42385;BME280;28042;43.986;22.860;2023-11-21T06:42:23;100916.44;;;6.06;100.00
42385;BME280;28042;43.986;22.860;2023-11-21T06:44:49;100942.56;;;6.23;100.00
42385;BME280;28042;43.986;22.860;2023-11-21T06:47:17;100946.00;;;6.33;100.00
42385;BME280;28042;43.986;22.860;2023-11-21T06:49:42;100915.28;;;6.16;100.00
42385;BME280;28042;43.986;22.860;2023-11-21T06:52:08;100937.72;;;6.35;100.00
42385;BME280;28042;43.986;22.860;2023-11-21T06:54:33;100944.34;;;6.40;100.00
42385;BME280;28042;43.986;22.860;2023-11-21T06:56:59;100964.72;;;6.53;100.00
42385;BME280;28042;43.986;22.860;2023-11-21T06:59:25;100963.66;;;6.45;100.00
42385;BME280;28042;43.986;22.860;2023-11-21T07:01:51;100959.09;;;6.46;100.00
42385;BME280;28042;43.986;22.860;2023-11-21T07:04:16;100957.56;;;6.43;100.00
42385;BME280;28042;43.986;22.860;2023-11-21T07:06:43;100935.13;;;6.25;100.00
42385;BME280;28042;43.986;22.860;2023-11-21T07:09:09;100930.25;;;6.29;100.00
42385;BME280;28042;43.986;22.860;2023-11-21T07:11:37;100947.38;;;6.37;100.00
42385;BME280;28042;43.986;22.860;2023-11-21T07:14:03;100946.19;;;6.40;100.00
42385;BME280;28042;43.986;22.860;2023-11-21T07:16:34;100923.75;;;6.13;100.00
42385;BME280;28042;43.986;22.860;2023-11-21T07:19:05;100946.34;;;6.30;100.00
42385;BME280;28042;43.986;22.860;2023-11-21T07:21:34;100941.72;;;6.22;100.00
42385;BME280;28042;43.986;22.860;2023-11-21T07:24:00;100953.81;;;6.36;100.00
42385;BME280;28042;43.986;22.860;2023-11-21T07:26:27;100950.31;;;6.52;100.00
42385;BME280;28042;43.986;22.860;2023-11-21T07:28:52;100946.44;;;6.63;100.00
42385;BME280;28042;43.986;22.860;2023-11-21T07:31:18;100937.25;;;6.56;100.00
42385;BME280;28042;43.986;22.860;2023-11-21T07:33:45;100932.19;;;6.53;100.00
42385;BME280;28042;43.986;22.860;2023-11-21T07:36:12;100950.44;;;6.50;100.00
42385;BME280;28042;43.986;22.860;2023-11-21T07:38:38;100951.84;;;6.55;100.00
42385;BME280;28042;43.986;22.860;2023-11-21T07:41:04;100940.66;;;6.58;100.00
42385;BME280;28042;43.986;22.860;2023-11-21T07:43:30;100951.53;;;6.74;100.00
42385;BME280;28042;43.986;22.860;2023-11-21T07:46:01;100951.72;;;6.80;100.00
42385;BME280;28042;43.986;22.860;2023-11-21T07:48:28;100951.19;;;6.85;100.00
42385;BME280;28042;43.986;22.860;2023-11-21T07:50:54;100951.56;;;6.90;100.00
42385;BME280;28042;43.986;22.860;2023-11-21T07:53:19;100954.28;;;6.98;100.00
42385;BME280;28042;43.986;22.860;2023-11-21T07:55:44;100960.38;;;7.17;100.00
42385;BME280;28042;43.986;22.860;2023-11-21T07:58:12;100930.53;;;7.25;100.00
42385;BME280;28042;43.986;22.860;2023-11-21T08:00:38;100914.94;;;7.35;100.00
42385;BME280;28042;43.986;22.860;2023-11-21T08:03:04;100942.38;;;7.56;100.00
42385;BME280;28042;43.986;22.860;2023-11-21T08:05:31;100935.91;;;7.74;100.00
42385;BME280;28042;43.986;22.860;2023-11-21T08:07:57;100909.44;;;7.68;100.00
42385;BME280;28042;43.986;22.860;2023-11-21T08:10:22;100940.72;;;8.03;100.00
42385;BME280;28042;43.986;22.860;2023-11-21T08:12:48;100942.19;;;8.21;100.00
42385;BME280;28042;43.986;22.860;2023-11-21T08:15:16;100892.31;;;8.06;100.00
42385;BME280;28042;43.986;22.860;2023-11-21T08:17:42;100924.34;;;8.58;100.00
42385;BME280;28042;43.986;22.860;2023-11-21T08:20:07;100920.59;;;8.59;99.56
42385;BME280;28042;43.986;22.860;2023-11-21T08:22:35;100888.94;;;8.66;99.38
42385;BME280;28042;43.986;22.860;2023-11-21T08:25:01;100897.81;;;8.83;96.97
42385;BME280;28042;43.986;22.860;2023-11-21T08:27:29;100930.69;;;9.19;96.99
42385;BME280;28042;43.986;22.860;2023-11-21T08:29:54;100918.34;;;9.31;95.03
42385;BME280;28042;43.986;22.860;2023-11-21T08:32:21;100929.25;;;9.46;93.44
42385;BME280;28042;43.986;22.860;2023-11-21T08:34:47;100907.06;;;9.34;92.27
42385;BME280;28042;43.986;22.860;2023-11-21T08:37:16;100931.53;;;9.72;90.58
42385;BME280;28042;43.986;22.860;2023-11-21T08:39:41;100906.47;;;9.91;90.64
42385;BME280;28042;43.986;22.860;2023-11-21T08:42:07;100891.72;;;10.01;88.54
42385;BME280;28042;43.986;22.860;2023-11-21T08:44:33;100903.34;;;10.24;87.42
42385;BME280;28042;43.986;22.860;2023-11-21T08:46:58;100905.25;;;10.09;85.98
42385;BME280;28042;43.986;22.860;2023-11-21T08:49:24;100900.25;;;10.12;85.67
42385;BME280;28042;43.986;22.860;2023-11-21T08:51:52;100895.84;;;10.26;85.27
42385;BME280;28042;43.986;22.860;2023-11-21T08:54:20;100889.19;;;9.99;85.43
42385;BME280;28042;43.986;22.860;2023-11-21T08:56:46;100893.97;;;10.12;86.49
42385;BME280;28042;43.986;22.860;2023-11-21T08:59:11;100874.94;;;10.33;86.73
42385;BME280;28042;43.986;22.860;2023-11-21T09:01:40;100851.44;;;10.32;85.11
42385;BME280;28042;43.986;22.860;2023-11-21T09:04:06;100844.78;;;10.35;82.56
42385;BME280;28042;43.986;22.860;2023-11-21T09:06:31;100869.25;;;10.50;83.78
42385;BME280;28042;43.986;22.860;2023-11-21T09:08:56;100842.63;;;10.30;81.41
42385;BME280;28042;43.986;22.860;2023-11-21T09:11:22;100865.13;;;10.54;82.88
42385;BME280;28042;43.986;22.860;2023-11-21T09:13:50;100826.84;;;10.47;82.76
42385;BME280;28042;43.986;22.860;2023-11-21T09:16:16;100828.34;;;10.71;82.86
42385;BME280;28042;43.986;22.860;2023-11-21T09:18:42;100859.66;;;10.96;80.76
42385;BME280;28042;43.986;22.860;2023-11-21T09:21:08;100828.97;;;10.94;80.98
42385;BME280;28042;43.986;22.860;2023-11-21T09:23:34;100831.66;;;10.88;81.62
42385;BME280;28042;43.986;22.860;2023-11-21T09:25:59;100803.03;;;10.56;83.40
42385;BME280;28042;43.986;22.860;2023-11-21T09:28:26;100823.47;;;10.88;83.24
42385;BME280;28042;43.986;22.860;2023-11-21T09:30:53;100829.06;;;10.58;84.39
42385;BME280;28042;43.986;22.860;2023-11-21T09:33:18;100821.84;;;10.51;84.92
42385;BME280;28042;43.986;22.860;2023-11-21T09:35:44;100810.03;;;10.86;84.95
42385;BME280;28042;43.986;22.860;2023-11-21T09:38:10;100801.66;;;10.94;81.89
42385;BME280;28042;43.986;22.860;2023-11-21T09:40:37;100781.56;;;11.02;80.34
42385;BME280;28042;43.986;22.860;2023-11-21T09:43:06;100797.31;;;11.28;80.24
42385;BME280;28042;43.986;22.860;2023-11-21T09:45:35;100800.28;;;11.33;77.73
42385;BME280;28042;43.986;22.860;2023-11-21T09:48:01;100792.16;;;11.46;76.99
42385;BME280;28042;43.986;22.860;2023-11-21T09:50:28;100753.59;;;11.28;76.90
42385;BME280;28042;43.986;22.860;2023-11-21T09:53:18;100786.59;;;11.26;78.21
42385;BME280;28042;43.986;22.860;2023-11-21T09:55:52;100757.63;;;10.97;77.79
42385;BME280;28042;43.986;22.860;2023-11-21T09:58:19;100772.69;;;10.93;78.43
42385;BME280;28042;43.986;22.860;2023-11-21T10:00:46;100743.34;;;10.95;79.16
42385;BME280;28042;43.986;22.860;2023-11-21T10:03:12;100729.91;;;11.00;78.05
42385;BME280;28042;43.986;22.860;2023-11-21T10:05:40;100747.34;;;11.34;79.08
42385;BME280;28042;43.986;22.860;2023-11-21T10:08:09;100744.97;;;10.90;79.58
42385;BME280;28042;43.986;22.860;2023-11-21T10:10:46;100732.44;;;11.02;81.53
42385;BME280;28042;43.986;22.860;2023-11-21T10:13:14;100733.34;;;11.09;80.64
42385;BME280;28042;43.986;22.860;2023-11-21T10:15:43;100693.47;;;11.15;80.83
42385;BME280;28042;43.986;22.860;2023-11-21T10:18:15;100721.78;;;11.48;78.92
42385;BME280;28042;43.986;22.860;2023-11-21T10:20:41;100702.13;;;11.73;77.61
42385;BME280;28042;43.986;22.860;2023-11-21T10:23:07;100689.69;;;11.16;78.18
42385;BME280;28042;43.986;22.860;2023-11-21T10:25:36;100685.63;;;11.46;79.12
42385;BME280;28042;43.986;22.860;2023-11-21T10:28:02;100686.94;;;11.64;78.43
42385;BME280;28042;43.986;22.860;2023-11-21T10:30:38;100683.59;;;11.61;77.30
42385;BME280;28042;43.986;22.860;2023-11-21T10:33:04;100663.31;;;11.36;79.37
42385;BME280;28042;43.986;22.860;2023-11-21T10:35:42;100707.13;;;11.63;79.65
42385;BME280;28042;43.986;22.860;2023-11-21T10:38:08;100704.25;;;11.77;78.50
42385;BME280;28042;43.986;22.860;2023-11-21T10:40:40;100703.47;;;11.90;77.47
42385;BME280;28042;43.986;22.860;2023-11-21T10:43:07;100686.28;;;12.09;76.22
42385;BME280;28042;43.986;22.860;2023-11-21T10:45:39;100699.09;;;12.15;76.16
42385;BME280;28042;43.986;22.860;2023-11-21T10:48:06;100678.69;;;12.25;75.50
42385;BME280;28042;43.986;22.860;2023-11-21T10:50:36;100694.06;;;12.39;75.20
42385;BME280;28042;43.986;22.860;2023-11-21T10:53:05;100669.88;;;12.09;73.93
42385;BME280;28042;43.986;22.860;2023-11-21T10:55:32;100691.94;;;12.01;74.00
42385;BME280;28042;43.986;22.860;2023-11-21T10:57:59;100679.84;;;11.69;75.92
42385;BME280;28042;43.986;22.860;2023-11-21T11:00:28;100661.34;;;11.78;75.71
42385;BME280;28042;43.986;22.860;2023-11-21T11:02:54;100680.41;;;12.26;74.80
42385;BME280;28042;43.986;22.860;2023-11-21T11:05:23;100678.91;;;12.30;73.34
42385;BME280;28042;43.986;22.860;2023-11-21T11:07:58;100693.63;;;12.42;74.04
42385;BME280;28042;43.986;22.860;2023-11-21T11:10:27;100681.22;;;12.20;72.96
42385;BME280;28042;43.986;22.860;2023-11-21T11:12:55;100676.19;;;12.16;73.45
42385;BME280;28042;43.986;22.860;2023-11-21T11:15:21;100686.66;;;12.06;73.27
42385;BME280;28042;43.986;22.860;2023-11-21T11:17:48;100656.38;;;12.14;73.47
42385;BME280;28042;43.986;22.860;2023-11-21T11:20:15;100643.59;;;12.35;72.95
42385;BME280;28042;43.986;22.860;2023-11-21T11:28:31;100627.38;;;12.27;71.97
42385;BME280;28042;43.986;22.860;2023-11-21T11:31:22;100652.41;;;12.24;71.93
42385;BME280;28042;43.986;22.860;2023-11-21T11:34:20;100618.91;;;11.75;73.23
42385;BME280;28042;43.986;22.860;2023-11-21T11:37:00;100649.66;;;12.10;73.14
42385;BME280;28042;43.986;22.860;2023-11-21T11:39:40;100639.97;;;12.14;72.40
42385;BME280;28042;43.986;22.860;2023-11-21T11:42:17;100642.09;;;11.99;72.68
42385;BME280;28042;43.986;22.860;2023-11-21T11:47:26;100635.38;;;12.08;73.43
42385;BME280;28042;43.986;22.860;2023-11-21T11:50:09;100629.69;;;12.03;73.24
42385;BME280;28042;43.986;22.860;2023-11-21T11:52:53;100632.84;;;12.27;73.21
42385;BME280;28042;43.986;22.860;2023-11-21T11:55:21;100594.56;;;12.13;72.45
42385;BME280;28042;43.986;22.860;2023-11-21T11:57:50;100616.00;;;12.30;72.32
42385;BME280;28042;43.986;22.860;2023-11-21T12:00:33;100625.06;;;12.37;74.59
42385;BME280;28042;43.986;22.860;2023-11-21T12:03:03;100621.88;;;12.33;75.84
42385;BME280;28042;43.986;22.860;2023-11-21T12:05:31;100583.81;;;12.05;76.42
42385;BME280;28042;43.986;22.860;2023-11-21T12:08:09;100587.63;;;12.04;76.79
42385;BME280;28042;43.986;22.860;2023-11-21T12:10:37;100610.97;;;12.20;76.76
42385;BME280;28042;43.986;22.860;2023-11-21T12:13:10;100616.41;;;12.07;76.14
42385;BME280;28042;43.986;22.860;2023-11-21T12:15:37;100626.75;;;12.11;76.15
42385;BME280;28042;43.986;22.860;2023-11-21T12:18:04;100616.03;;;12.16;75.95
42385;BME280;28042;43.986;22.860;2023-11-21T12:20:31;100618.53;;;12.25;75.52
42385;BME280;28042;43.986;22.860;2023-11-21T12:22:59;100616.66;;;12.25;75.38
42385;BME280;28042;43.986;22.860;2023-11-21T12:25:28;100603.59;;;12.21;75.72
42385;BME280;28042;43.986;22.860;2023-11-21T12:27:55;100577.31;;;12.00;76.09
42385;BME280;28042;43.986;22.860;2023-11-21T12:30:23;100608.63;;;12.24;76.36
42385;BME280;28042;43.986;22.860;2023-11-21T12:32:52;100578.16;;;12.00;76.33
42385;BME280;28042;43.986;22.860;2023-11-21T12:35:23;100599.19;;;12.13;76.42
42385;BME280;28042;43.986;22.860;2023-11-21T12:37:50;100595.41;;;12.21;75.80
42385;BME280;28042;43.986;22.860;2023-11-21T12:40:16;100611.81;;;12.34;75.66
42385;BME280;28042;43.986;22.860;2023-11-21T12:42:43;100614.13;;;12.37;77.32
42385;BME280;28042;43.986;22.860;2023-11-21T12:47:43;100590.16;;;12.19;81.39
42385;BME280;28042;43.986;22.860;2023-11-21T12:50:09;100571.03;;;11.99;82.23
42385;BME280;28042;43.986;22.860;2023-11-21T12:52:45;100607.19;;;12.01;82.99